createdAt,value
2023-04-24T00:00:07.671Z,9.83
2023-04-24T00:02:35.985Z,9.76
2023-04-24T00:05:04.768Z,9.85
2023-04-24T00:07:32.936Z,9.92
2023-04-24T00:10:01.125Z,9.82
2023-04-24T00:12:29.625Z,9.72
2023-04-24T00:14:59.250Z,9.70
2023-04-24T00:17:27.415Z,9.74
2023-04-24T00:19:59.506Z,9.67
2023-04-24T00:22:28.408Z,9.59
2023-04-24T00:24:56.562Z,9.56
2023-04-24T00:27:24.908Z,9.49
2023-04-24T00:29:52.959Z,9.42
2023-04-24T00:32:22.405Z,9.38
2023-04-24T00:34:50.838Z,9.42
2023-04-24T00:37:19.045Z,9.37
2023-04-24T00:39:47.317Z,9.41
2023-04-24T00:42:15.404Z,9.34
2023-04-24T00:44:43.587Z,9.29
2023-04-24T00:47:13.297Z,9.26
2023-04-24T00:49:43.150Z,9.28
2023-04-24T00:52:11.880Z,9.23
2023-04-24T00:54:39.947Z,9.27
2023-04-24T00:57:08.336Z,9.24
2023-04-24T00:59:37.690Z,9.19
2023-04-24T01:02:06.855Z,9.18
2023-04-24T01:04:35.337Z,9.16
2023-04-24T01:07:05.829Z,9.13
2023-04-24T01:09:33.945Z,9.07
2023-04-24T01:12:02.713Z,9.08
2023-04-24T01:14:31.593Z,8.99
2023-04-24T01:17:01.575Z,8.94
2023-04-24T01:19:29.823Z,8.89
2023-04-24T01:22:01.639Z,8.85
2023-04-24T01:24:31.344Z,8.81
2023-04-24T01:26:59.595Z,8.81
2023-04-24T01:29:27.714Z,8.88
2023-04-24T01:31:58.790Z,8.92
2023-04-24T01:34:27.519Z,8.97
2023-04-24T01:36:57.138Z,9.02
2023-04-24T01:39:26.782Z,8.98
2023-04-24T01:41:56.572Z,8.98
2023-04-24T01:44:25.259Z,8.92
2023-04-24T01:46:55.201Z,8.83
2023-04-24T01:49:23.563Z,8.73
2023-04-24T01:51:51.706Z,8.56
2023-04-24T01:54:20.643Z,8.45
2023-04-24T01:56:49.301Z,8.47
2023-04-24T01:59:19.592Z,8.52
2023-04-24T02:01:47.672Z,8.46
2023-04-24T02:04:16.586Z,8.38
2023-04-24T02:06:44.748Z,8.32
2023-04-24T02:09:13.077Z,8.28
2023-04-24T02:11:41.249Z,8.32
2023-04-24T02:14:09.451Z,8.20
2023-04-24T02:16:39.056Z,8.19
2023-04-24T02:19:07.220Z,8.08
2023-04-24T02:21:35.626Z,8.01
2023-04-24T02:24:05.565Z,7.95
2023-04-24T02:26:34.139Z,8.02
2023-04-24T02:29:02.741Z,8.07
2023-04-24T02:31:30.984Z,7.94
2023-04-24T02:34:00.592Z,7.86
2023-04-24T02:36:28.684Z,7.80
2023-04-24T02:38:56.807Z,7.75
2023-04-24T02:41:24.873Z,7.75
2023-04-24T02:43:52.969Z,7.78
2023-04-24T02:46:21.062Z,7.72
2023-04-24T02:48:49.216Z,7.66
2023-04-24T02:51:18.649Z,7.62
2023-04-24T02:53:46.889Z,7.58
2023-04-24T02:56:14.969Z,7.60
2023-04-24T02:58:43.345Z,7.64
2023-04-24T03:01:11.769Z,7.68
2023-04-24T03:03:40.699Z,7.69
2023-04-24T03:06:09.097Z,7.67
2023-04-24T03:08:38.982Z,7.64
2023-04-24T03:11:07.097Z,7.70
2023-04-24T03:13:35.239Z,7.64
2023-04-24T03:16:03.492Z,7.60
2023-04-24T03:18:31.604Z,7.57
2023-04-24T03:21:03.094Z,7.73
2023-04-24T03:23:34.041Z,7.73
2023-04-24T03:26:04.031Z,7.68
2023-04-24T03:28:32.289Z,7.72
2023-04-24T03:31:01.267Z,7.75
2023-04-24T03:33:29.662Z,7.72
2023-04-24T03:35:58.209Z,7.74
2023-04-24T03:38:26.427Z,7.94
2023-04-24T03:40:54.586Z,7.99
2023-04-24T03:43:24.690Z,8.03
2023-04-24T03:45:53.189Z,8.01
2023-04-24T03:48:21.389Z,8.04
2023-04-24T03:50:50.704Z,8.21
2023-04-24T03:53:18.830Z,8.28
2023-04-24T03:55:47.030Z,8.31
2023-04-24T03:58:15.594Z,8.43
2023-04-24T04:00:45.636Z,8.39
2023-04-24T04:03:14.518Z,8.38
2023-04-24T04:05:42.975Z,8.49
2023-04-24T04:08:11.149Z,8.53
2023-04-24T04:10:39.348Z,8.56
2023-04-24T04:13:08.145Z,8.69
2023-04-24T04:15:36.779Z,8.84
2023-04-24T04:18:06.728Z,8.96
2023-04-24T04:20:35.075Z,9.02
2023-04-24T04:23:03.267Z,9.02
2023-04-24T04:25:31.282Z,9.10
2023-04-24T04:28:00.710Z,9.26
2023-04-24T04:30:30.537Z,9.37
2023-04-24T04:32:58.588Z,9.41
2023-04-24T04:35:28.409Z,9.53
2023-04-24T04:37:57.194Z,9.74
2023-04-24T04:40:25.440Z,9.80
2023-04-24T04:42:54.244Z,9.89
2023-04-24T04:45:22.841Z,9.97
2023-04-24T04:48:08.991Z,10.07
2023-04-24T04:50:38.571Z,10.21
2023-04-24T04:53:06.816Z,10.33
2023-04-24T04:55:35.020Z,10.45
2023-04-24T04:58:03.219Z,10.29
2023-04-24T05:00:36.568Z,10.37
2023-04-24T05:03:19.381Z,10.46
2023-04-24T05:05:50.599Z,11.05
2023-04-24T05:08:26.414Z,11.14
2023-04-24T05:10:56.515Z,11.34
2023-04-24T05:13:38.202Z,11.50
2023-04-24T05:16:07.125Z,11.56
2023-04-24T05:18:35.419Z,11.63
2023-04-24T05:21:05.506Z,11.51
2023-04-24T05:23:33.677Z,11.57
2023-04-24T05:26:01.998Z,11.65
2023-04-24T05:28:30.148Z,11.73
2023-04-24T05:30:58.395Z,11.63
2023-04-24T05:33:26.589Z,11.73
2023-04-24T05:35:55.988Z,11.75
2023-04-24T05:38:25.776Z,11.69
2023-04-24T05:40:53.913Z,11.56
2023-04-24T05:43:22.079Z,11.68
2023-04-24T05:45:50.657Z,11.36
2023-04-24T05:48:18.865Z,11.24
2023-04-24T05:50:49.151Z,11.54
2023-04-24T05:53:17.784Z,11.44
2023-04-24T05:55:47.821Z,11.48
2023-04-24T05:58:16.815Z,11.56
2023-04-24T06:00:47.387Z,11.74
2023-04-24T06:03:15.714Z,11.81
2023-04-24T06:05:44.135Z,11.72
2023-04-24T06:08:12.609Z,11.92
2023-04-24T06:10:41.373Z,12.06
2023-04-24T06:13:10.909Z,12.26
2023-04-24T06:15:39.459Z,12.44
2023-04-24T06:18:07.539Z,12.53
2023-04-24T06:20:35.580Z,12.59
2023-04-24T06:23:03.845Z,12.58
2023-04-24T06:25:32.180Z,12.66
2023-04-24T06:28:00.474Z,12.22
2023-04-24T06:30:30.142Z,12.04
2023-04-24T06:33:03.074Z,12.47
2023-04-24T06:35:39.233Z,12.67
2023-04-24T06:38:07.797Z,12.90
2023-04-24T06:40:36.142Z,12.84
2023-04-24T06:43:04.260Z,13.10
2023-04-24T06:45:33.761Z,12.98
2023-04-24T06:48:02.067Z,13.09
2023-04-24T06:50:30.254Z,13.20
2023-04-24T06:52:58.525Z,13.20
2023-04-24T06:55:26.631Z,13.20
2023-04-24T06:57:55.165Z,13.06
2023-04-24T07:00:25.409Z,12.63
2023-04-24T07:02:55.229Z,12.66
2023-04-24T07:05:24.490Z,12.86
2023-04-24T07:07:53.574Z,12.92
2023-04-24T07:10:22.342Z,13.04
2023-04-24T07:12:50.710Z,13.24
2023-04-24T07:15:19.091Z,13.40
2023-04-24T07:17:47.269Z,13.50
2023-04-24T07:20:24.465Z,13.35
2023-04-24T07:22:55.030Z,13.75
2023-04-24T07:25:23.376Z,14.15
2023-04-24T07:27:51.639Z,14.28
2023-04-24T07:30:19.859Z,14.19
2023-04-24T07:32:48.050Z,14.33
2023-04-24T07:35:17.755Z,14.46
2023-04-24T07:37:47.050Z,14.72
2023-04-24T07:40:15.352Z,14.96
2023-04-24T07:42:44.980Z,15.05
2023-04-24T07:45:13.238Z,15.26
2023-04-24T07:47:41.594Z,15.44
2023-04-24T07:50:10.641Z,15.57
2023-04-24T07:52:40.363Z,15.29
2023-04-24T07:55:09.557Z,15.21
2023-04-24T07:57:38.357Z,15.17
2023-04-24T08:00:07.980Z,15.56
2023-04-24T08:02:36.450Z,15.59
2023-04-24T08:05:05.397Z,15.72
2023-04-24T08:07:33.854Z,15.44
2023-04-24T08:10:03.524Z,15.97
2023-04-24T08:12:32.137Z,16.18
2023-04-24T08:15:00.554Z,16.53
2023-04-24T08:17:28.623Z,16.16
2023-04-24T08:20:02.697Z,16.03
2023-04-24T08:22:31.637Z,16.02
2023-04-24T08:25:02.021Z,15.71
2023-04-24T08:27:31.514Z,15.82
2023-04-24T08:30:00.116Z,15.92
2023-04-24T08:32:30.241Z,15.78
2023-04-24T08:35:00.286Z,16.26
2023-04-24T08:37:29.435Z,16.15
2023-04-24T08:39:57.565Z,15.91
2023-04-24T08:42:26.181Z,15.60
2023-04-24T08:44:57.839Z,15.97
2023-04-24T08:47:28.482Z,16.13
2023-04-24T08:49:56.818Z,16.18
2023-04-24T08:52:25.486Z,16.12
2023-04-24T08:54:55.730Z,16.08
2023-04-24T08:57:24.562Z,15.99
2023-04-24T08:59:53.469Z,16.12
2023-04-24T09:02:23.667Z,16.14
2023-04-24T09:04:54.769Z,16.11
2023-04-24T09:07:27.128Z,16.16
2023-04-24T09:09:56.794Z,16.10
2023-04-24T09:12:24.957Z,16.08
2023-04-24T09:14:55.128Z,15.99
2023-04-24T09:17:28.094Z,16.30
2023-04-24T09:19:56.437Z,16.52
2023-04-24T09:22:24.766Z,16.60
2023-04-24T09:25:04.126Z,16.53
2023-04-24T09:27:33.200Z,16.42
2023-04-24T09:30:02.099Z,16.62
2023-04-24T09:32:32.977Z,16.90
2023-04-24T09:35:13.444Z,16.74
2023-04-24T09:37:43.675Z,16.83
2023-04-24T09:40:14.453Z,16.61
2023-04-24T09:42:45.458Z,16.39
2023-04-24T09:45:15.402Z,16.73
2023-04-24T09:47:47.307Z,16.87
2023-04-24T09:50:17.868Z,16.91
2023-04-24T09:52:57.873Z,17.20
2023-04-24T09:55:26.593Z,17.57
2023-04-24T09:57:55.957Z,17.77
2023-04-24T10:00:25.987Z,17.76
2023-04-24T10:02:59.201Z,17.71
2023-04-24T10:05:30.548Z,17.49
2023-04-24T10:07:59.671Z,17.26
2023-04-24T10:10:28.818Z,17.31
2023-04-24T10:12:57.609Z,17.35
2023-04-24T10:15:26.561Z,17.48
2023-04-24T10:17:57.456Z,17.79
2023-04-24T10:20:30.229Z,17.88
2023-04-24T10:22:59.369Z,17.67
2023-04-24T10:25:29.276Z,17.49
2023-04-24T10:28:00.666Z,17.75
2023-04-24T10:30:30.205Z,17.66
2023-04-24T10:32:58.778Z,17.76
2023-04-24T10:35:28.545Z,17.84
2023-04-24T10:38:01.051Z,17.94
2023-04-24T10:40:32.499Z,18.03
2023-04-24T10:43:00.917Z,18.05
2023-04-24T10:45:29.131Z,18.21
2023-04-24T10:48:04.308Z,17.95
2023-04-24T10:50:47.510Z,18.17
2023-04-24T10:53:18.557Z,18.59
2023-04-24T10:55:49.269Z,18.85
2023-04-24T10:58:18.786Z,19.08
2023-04-24T11:00:58.704Z,19.31
2023-04-24T11:03:30.285Z,19.57
2023-04-24T11:06:02.364Z,19.44
2023-04-24T11:08:39.394Z,19.03
2023-04-24T11:11:12.385Z,18.81
2023-04-24T11:14:09.349Z,18.94
2023-04-24T11:16:41.978Z,19.05
2023-04-24T11:19:12.245Z,18.73
2023-04-24T11:21:46.120Z,18.55
2023-04-24T11:24:39.474Z,18.60
2023-04-24T11:27:10.181Z,18.99
2023-04-24T11:29:44.082Z,19.52
2023-04-24T11:32:26.823Z,19.43
2023-04-24T11:34:57.497Z,19.55
2023-04-24T11:37:29.621Z,19.78
2023-04-24T11:40:01.179Z,19.96
2023-04-24T11:42:31.318Z,20.11
2023-04-24T11:45:01.388Z,20.26
2023-04-24T11:47:35.088Z,20.40
2023-04-24T11:50:04.844Z,20.43
2023-04-24T11:52:35.913Z,19.80
2023-04-24T11:55:04.872Z,19.22
2023-04-24T11:57:35.493Z,19.17
2023-04-24T12:00:06.257Z,19.52
2023-04-24T12:02:36.926Z,19.77
2023-04-24T12:05:07.275Z,20.11
2023-04-24T12:07:44.294Z,20.09
2023-04-24T12:10:12.665Z,19.99
2023-04-24T12:12:41.039Z,19.90
2023-04-24T12:15:10.623Z,19.60
2023-04-24T12:17:43.318Z,19.83
2023-04-24T12:20:12.808Z,19.92
2023-04-24T12:22:49.717Z,19.82
2023-04-24T12:25:19.823Z,19.71
2023-04-24T12:27:48.777Z,19.94
2023-04-24T12:30:18.787Z,20.07
2023-04-24T12:32:49.147Z,20.17
2023-04-24T12:35:23.146Z,20.35
2023-04-24T12:37:52.817Z,20.18
2023-04-24T12:40:23.021Z,20.40
2023-04-24T12:42:52.638Z,20.55
2023-04-24T12:45:24.459Z,20.84
2023-04-24T12:47:52.678Z,20.87
2023-04-24T12:50:21.561Z,21.06
2023-04-24T12:52:50.548Z,21.06
2023-04-24T12:55:20.144Z,21.22
2023-04-24T12:57:48.541Z,21.21
2023-04-24T13:00:19.988Z,20.96
2023-04-24T13:02:48.614Z,20.90
2023-04-24T13:05:16.850Z,20.96
2023-04-24T13:07:45.128Z,20.98
2023-04-24T13:10:14.371Z,21.15
2023-04-24T13:12:46.477Z,21.14
2023-04-24T13:15:15.079Z,21.30
2023-04-24T13:17:43.392Z,21.36
2023-04-24T13:20:12.086Z,21.42
2023-04-24T13:22:40.328Z,21.37
2023-04-24T13:25:10.008Z,21.30
2023-04-24T13:27:40.626Z,21.26
2023-04-24T13:30:13.940Z,21.02
2023-04-24T13:32:42.361Z,20.76
2023-04-24T13:35:11.194Z,20.89
2023-04-24T13:37:39.889Z,20.84
2023-04-24T13:40:09.531Z,20.86
2023-04-24T13:42:37.831Z,21.11
2023-04-24T13:45:17.783Z,21.08
2023-04-24T13:47:59.055Z,21.02
2023-04-24T13:50:30.504Z,21.08
2023-04-24T13:53:02.619Z,20.76
2023-04-24T13:55:33.566Z,20.72
2023-04-24T13:58:02.464Z,20.88
2023-04-24T14:00:31.099Z,21.01
2023-04-24T14:03:00.941Z,21.24
2023-04-24T14:05:29.388Z,21.10
2023-04-24T14:07:57.734Z,21.13
2023-04-24T14:10:26.652Z,21.19
2023-04-24T14:12:54.912Z,21.29
2023-04-24T14:15:23.330Z,21.42
2023-04-24T14:17:52.193Z,21.21
2023-04-24T14:20:22.842Z,21.50
2023-04-24T14:22:51.412Z,21.34
2023-04-24T14:25:20.617Z,21.53
2023-04-24T14:27:49.417Z,21.75
2023-04-24T14:30:17.805Z,22.00
2023-04-24T14:32:48.312Z,21.87
2023-04-24T14:35:17.128Z,21.84
2023-04-24T14:37:49.454Z,21.79
2023-04-24T14:40:39.673Z,21.65
2023-04-24T14:43:06.399Z,21.74
2023-04-24T14:45:37.671Z,21.90
2023-04-24T14:48:06.531Z,21.78
2023-04-24T14:50:35.216Z,21.49
2023-04-24T14:53:05.248Z,21.64
2023-04-24T14:55:35.230Z,21.53
2023-04-24T14:58:03.457Z,21.52
2023-04-24T15:00:31.842Z,21.45
2023-04-24T15:03:01.236Z,21.62
2023-04-24T15:05:33.479Z,21.83
2023-04-24T15:08:09.521Z,22.06
2023-04-24T15:10:38.225Z,21.99
2023-04-24T15:13:06.965Z,21.96
2023-04-24T15:15:35.211Z,21.56
2023-04-24T15:18:03.885Z,21.28
2023-04-24T15:20:33.208Z,21.18
2023-04-24T15:23:04.031Z,21.08
2023-04-24T15:25:34.971Z,21.07
2023-04-24T15:28:05.997Z,21.07
2023-04-24T15:30:34.857Z,20.93
2023-04-24T15:33:06.829Z,20.96
2023-04-24T15:35:37.075Z,20.83
2023-04-24T15:38:05.751Z,20.79
2023-04-24T15:40:36.396Z,20.65
2023-04-24T15:43:04.667Z,20.62
2023-04-24T15:45:33.376Z,20.56
2023-04-24T15:48:03.134Z,20.50
2023-04-24T15:50:32.951Z,20.55
2023-04-24T15:53:01.598Z,20.53
2023-04-24T15:55:30.621Z,20.37
2023-04-24T15:58:00.322Z,20.29
2023-04-24T16:00:34.394Z,20.16
2023-04-24T16:03:03.230Z,20.05
2023-04-24T16:05:31.652Z,20.11
2023-04-24T16:08:00.260Z,20.25
2023-04-24T16:10:29.785Z,20.13
2023-04-24T16:13:01.196Z,20.18
2023-04-24T16:15:29.402Z,20.16
2023-04-24T16:17:58.587Z,20.20
2023-04-24T16:20:28.284Z,20.12
2023-04-24T16:22:56.542Z,20.14
2023-04-24T16:25:24.644Z,20.05
2023-04-24T16:27:52.891Z,20.14
2023-04-24T16:30:22.518Z,20.10
2023-04-24T16:32:51.041Z,20.03
2023-04-24T16:35:19.356Z,20.12
2023-04-24T16:37:47.631Z,20.00
2023-04-24T16:40:15.972Z,19.89
2023-04-24T16:42:44.085Z,19.82
2023-04-24T16:45:12.855Z,19.78
2023-04-24T16:47:42.785Z,19.77
2023-04-24T16:50:13.043Z,19.69
2023-04-24T16:52:41.258Z,19.61
2023-04-24T16:55:10.728Z,19.51
2023-04-24T16:57:38.889Z,19.45
2023-04-24T17:00:08.892Z,19.36
2023-04-24T17:02:37.538Z,19.34
2023-04-24T17:05:08.681Z,19.25
2023-04-24T17:07:37.081Z,19.18
2023-04-24T17:10:05.702Z,19.16
2023-04-24T17:12:34.607Z,19.09
2023-04-24T17:15:02.887Z,19.07
2023-04-24T17:17:31.025Z,19.03
2023-04-24T17:20:01.510Z,18.94
2023-04-24T17:22:33.070Z,18.87
2023-04-24T17:25:01.340Z,18.76
2023-04-24T17:27:30.849Z,18.66
2023-04-24T17:30:00.358Z,18.54
2023-04-24T17:32:28.818Z,18.41
2023-04-24T17:34:57.044Z,18.23
2023-04-24T17:37:25.475Z,18.15
2023-04-24T17:39:55.287Z,18.11
2023-04-24T17:42:23.409Z,18.07
2023-04-24T17:44:53.152Z,18.04
2023-04-24T17:47:22.887Z,17.97
2023-04-24T17:49:52.304Z,17.92
2023-04-24T17:52:20.453Z,17.82
2023-04-24T17:54:49.814Z,17.76
2023-04-24T17:57:19.761Z,17.73
2023-04-24T17:59:47.865Z,17.69
2023-04-24T18:02:16.577Z,17.69
2023-04-24T18:04:45.050Z,17.60
2023-04-24T18:07:13.302Z,17.53
2023-04-24T18:09:41.555Z,17.53
2023-04-24T18:12:27.028Z,17.48
2023-04-24T18:15:06.677Z,17.43
2023-04-24T18:17:41.869Z,17.35
2023-04-24T18:20:11.452Z,17.31
2023-04-24T18:22:41.004Z,17.23
2023-04-24T18:25:10.291Z,17.16
2023-04-24T18:27:39.066Z,17.13
2023-04-24T18:30:14.938Z,17.10
2023-04-24T18:32:43.952Z,17.17
2023-04-24T18:35:12.949Z,17.16
2023-04-24T18:37:41.846Z,17.02
2023-04-24T18:40:12.226Z,16.96
2023-04-24T18:42:41.061Z,16.95
2023-04-24T18:45:14.663Z,16.95
2023-04-24T18:47:44.003Z,16.91
2023-04-24T18:50:14.849Z,16.76
2023-04-24T18:52:43.575Z,16.65
2023-04-24T18:55:12.489Z,16.57
2023-04-24T18:57:40.756Z,16.55
2023-04-24T19:00:11.591Z,16.49
2023-04-24T19:02:40.758Z,16.56
2023-04-24T19:05:11.191Z,16.50
2023-04-24T19:07:41.093Z,16.41
2023-04-24T19:10:10.927Z,16.39
2023-04-24T19:12:39.745Z,16.37
2023-04-24T19:15:11.957Z,16.29
2023-04-24T19:17:42.773Z,16.22
2023-04-24T19:20:12.549Z,16.11
2023-04-24T19:22:41.250Z,16.12
2023-04-24T19:25:11.075Z,16.06
2023-04-24T19:27:39.744Z,15.86
2023-04-24T19:30:09.607Z,15.85
2023-04-24T19:32:38.288Z,15.69
2023-04-24T19:35:11.746Z,15.68
2023-04-24T19:37:42.105Z,15.67
2023-04-24T19:40:10.954Z,15.57
2023-04-24T19:42:43.819Z,15.40
2023-04-24T19:45:13.580Z,15.44
2023-04-24T19:47:42.536Z,15.31
2023-04-24T19:50:12.509Z,15.26
2023-04-24T19:52:40.910Z,15.10
2023-04-24T19:55:09.862Z,15.06
2023-04-24T19:57:38.226Z,15.18
2023-04-24T20:00:08.424Z,15.02
2023-04-24T20:02:37.125Z,15.00
2023-04-24T20:05:06.519Z,15.01
2023-04-24T20:07:36.465Z,14.93
2023-04-24T20:10:04.866Z,14.82
2023-04-24T20:12:33.088Z,14.73
2023-04-24T20:15:02.224Z,14.67
2023-04-24T20:17:30.628Z,14.59
2023-04-24T20:19:58.795Z,14.57
2023-04-24T20:22:26.951Z,14.73
2023-04-24T20:24:56.803Z,14.66
2023-04-24T20:27:25.054Z,14.61
2023-04-24T20:29:54.922Z,14.76
2023-04-24T20:32:24.674Z,14.80
2023-04-24T20:34:52.960Z,14.72
2023-04-24T20:37:21.300Z,14.68
2023-04-24T20:39:51.026Z,14.68
2023-04-24T20:42:20.831Z,14.71
2023-04-24T20:44:49.390Z,14.78
2023-04-24T20:47:17.519Z,14.86
2023-04-24T20:49:45.659Z,14.95
2023-04-24T20:52:13.913Z,14.93
2023-04-24T20:54:42.071Z,14.89
2023-04-24T20:57:10.491Z,14.87
2023-04-24T20:59:40.213Z,14.89
2023-04-24T21:02:08.954Z,15.08
2023-04-24T21:04:39.853Z,15.07
2023-04-24T21:07:09.396Z,15.07
2023-04-24T21:09:37.864Z,15.03
2023-04-24T21:12:06.409Z,14.95
2023-04-24T21:14:34.526Z,14.94
2023-04-24T21:17:04.299Z,14.92
2023-04-24T21:19:32.574Z,14.90
2023-04-24T21:22:00.794Z,14.89
2023-04-24T21:24:29.274Z,14.87
2023-04-24T21:26:57.490Z,14.96
2023-04-24T21:29:25.628Z,14.87
2023-04-24T21:31:54.309Z,14.86
2023-04-24T21:34:23.881Z,14.86
2023-04-24T21:36:52.070Z,14.81
2023-04-24T21:39:20.172Z,14.75
2023-04-24T21:41:48.680Z,14.72
2023-04-24T21:44:16.870Z,14.73
2023-04-24T21:46:45.273Z,14.67
2023-04-24T21:49:13.473Z,14.61
2023-04-24T21:51:43.074Z,14.56
2023-04-24T21:54:11.147Z,14.44
2023-04-24T21:56:41.532Z,14.39
2023-04-24T21:59:10.091Z,14.26
2023-04-24T22:01:38.611Z,14.11
2023-04-24T22:04:07.366Z,14.00
2023-04-24T22:06:35.587Z,13.90
2023-04-24T22:09:06.006Z,13.84
2023-04-24T22:11:34.175Z,13.75
2023-04-24T22:14:02.205Z,13.65
2023-04-24T22:16:31.254Z,13.41
2023-04-24T22:18:59.884Z,13.18
2023-04-24T22:21:29.123Z,12.93
2023-04-24T22:23:57.849Z,12.79
2023-04-24T22:26:27.339Z,12.73
2023-04-24T22:28:55.509Z,12.65
2023-04-24T22:31:23.770Z,12.61
2023-04-24T22:33:52.655Z,12.43
2023-04-24T22:36:21.534Z,12.37
2023-04-24T22:38:49.708Z,12.49
2023-04-24T22:41:18.049Z,12.38
2023-04-24T22:43:47.965Z,12.34
2023-04-24T22:46:16.327Z,12.28
2023-04-24T22:48:44.514Z,12.25
2023-04-24T22:51:12.724Z,12.24
2023-04-24T22:53:40.984Z,12.18
2023-04-24T22:56:09.233Z,12.12
2023-04-24T22:58:37.438Z,12.05
2023-04-24T23:01:07.151Z,12.00
2023-04-24T23:03:35.857Z,11.97
2023-04-24T23:06:04.432Z,11.90
2023-04-24T23:08:32.586Z,11.87
2023-04-24T23:11:02.006Z,11.81
2023-04-24T23:13:30.181Z,11.87
2023-04-24T23:15:58.504Z,11.93
2023-04-24T23:18:28.345Z,11.94
2023-04-24T23:20:56.510Z,11.91
2023-04-24T23:23:24.759Z,11.88
2023-04-24T23:25:52.755Z,11.81
2023-04-24T23:28:21.065Z,11.72
2023-04-24T23:30:49.227Z,11.71
2023-04-24T23:33:17.308Z,11.74
2023-04-24T23:35:46.947Z,11.75
2023-04-24T23:38:15.215Z,11.73
2023-04-24T23:40:43.566Z,11.73
2023-04-24T23:43:12.678Z,11.70
2023-04-24T23:45:40.852Z,11.67
2023-04-24T23:48:09.008Z,11.59
2023-04-24T23:50:37.216Z,11.62
2023-04-24T23:53:06.800Z,11.68
2023-04-24T23:55:34.952Z,11.73
2023-04-24T23:58:03.179Z,11.60
